createdAt,value
2023-06-17T00:01:56.030Z,2731.926421404682
2023-06-17T00:12:26.465Z,2663.789297658863
2023-06-17T00:18:46.880Z,2663.0267558528426
2023-06-17T00:29:23.563Z,2761.47491638796
2023-06-17T00:41:13.158Z,2940.943143812709
2023-06-17T00:47:34.656Z,2964.1003344481605
2023-06-17T00:53:55.330Z,3016.14381270903
2023-06-17T01:00:15.955Z,3076.4046822742475
2023-06-17T01:06:36.594Z,3165.0702341137126
2023-06-17T01:12:56.245Z,3243.8026755852843
2023-06-17T01:19:16.037Z,3298.725752508361
2023-06-17T01:25:36.497Z,3542.066889632107
2023-06-17T01:41:10.407Z,3399.933110367893
2023-06-17T01:47:30.920Z,3345.943143812709
2023-06-17T01:55:45.201Z,3592.85618729097
2023-06-17T02:07:45.434Z,3489.8628762541807
2023-06-17T02:14:05.386Z,3652.0033444816054
2023-06-17T02:20:25.182Z,3408.7725752508363
2023-06-17T02:32:20.011Z,3420.361204013378
2023-06-17T02:45:10.733Z,3256.876254180602
2023-06-17T02:51:30.886Z,3209.127090301003
2023-06-17T02:57:51.527Z,3289.8260869565215
2023-06-17T03:06:16.613Z,3381.0501672240803
2023-06-17T03:12:36.408Z,3475.9765886287623
2023-06-17T03:18:56.840Z,3685.7157190635453
2023-06-17T03:30:31.302Z,3861.632107023411
2023-06-17T03:36:51.467Z,4127.277591973244
2023-06-17T03:43:15.518Z,3859.695652173913
2023-06-17T03:49:38.488Z,3770.6688963210704
2023-06-17T03:56:00.515Z,3558.040133779264
2023-06-17T04:02:23.179Z,3550.655518394649
2023-06-17T04:08:46.316Z,3459.9632107023413
2023-06-17T04:15:08.700Z,3500.23745819398
2023-06-17T04:22:02.527Z,3469.454849498328
2023-06-17T04:32:52.825Z,3395.3076923076924
2023-06-17T04:41:36.451Z,3329.9096989966556
2023-06-17T04:47:59.110Z,3277.123745819398
2023-06-17T04:54:21.088Z,3288.4916387959865
2023-06-17T05:04:11.728Z,3306.230769230769
2023-06-17T05:10:34.878Z,3224.0066889632108
2023-06-17T05:16:57.955Z,3227.1070234113713
2023-06-17T05:23:21.369Z,3226.515050167224
2023-06-17T05:34:52.771Z,3049.876254180602
2023-06-17T05:41:18.692Z,2979.8528428093646
2023-06-17T05:47:41.523Z,2799.4615384615386
2023-06-17T05:58:25.875Z,2814.1304347826085
2023-06-17T06:10:29.804Z,2787.5016722408027
2023-06-17T06:16:52.681Z,2809.344481605351
2023-06-17T06:23:15.422Z,2948.4983277591973
2023-06-17T06:34:56.878Z,3027.9732441471574
2023-06-17T06:42:36.669Z,2851.9163879598664
2023-06-17T06:48:58.924Z,3015.2909698996655
2023-06-17T06:55:22.538Z,2992.846153846154
2023-06-17T07:02:07.839Z,2973.200668896321
2023-06-17T07:15:25.319Z,3178.5852842809363
2023-06-17T07:21:47.517Z,3194.1872909698995
2023-06-17T07:28:10.261Z,3281.247491638796
2023-06-17T07:34:32.837Z,3166.535117056856
2023-06-17T07:40:54.799Z,3193.103678929766
2023-06-17T07:48:41.064Z,3250.153846153846
2023-06-17T08:01:17.517Z,3315.210702341137
2023-06-17T08:07:39.712Z,3294.2909698996655
2023-06-17T08:14:31.096Z,3231.371237458194
2023-06-17T08:22:33.420Z,3240.6220735785955
2023-06-17T08:28:56.780Z,3286.073578595318
2023-06-17T08:35:20.551Z,3903.0602006688964
2023-06-17T08:43:19.190Z,3480.9732441471574
2023-06-17T08:49:43.870Z,3418.8361204013377
2023-06-17T08:56:08.982Z,3516.8528428093646
2023-06-17T09:02:33.157Z,3752.5886287625417
2023-06-17T09:08:56.670Z,3690.7725752508363
2023-06-17T09:15:20.697Z,3621.6622073578596
2023-06-17T09:22:21.473Z,3595.6153846153848
2023-06-17T09:29:29.716Z,3649.344481605351
2023-06-17T09:40:45.981Z,3665.9799331103677
2023-06-17T09:54:50.421Z,3726.742474916388
2023-06-17T10:05:18.865Z,3780.521739130435
2023-06-17T10:15:03.649Z,3640.515050167224
2023-06-17T10:21:29.146Z,3672.551839464883
2023-06-17T10:27:52.988Z,3769.484949832776
2023-06-17T10:34:17.180Z,3633.742474916388
2023-06-17T10:40:40.954Z,3604.896321070234
2023-06-17T10:47:04.585Z,3582.872909698997
2023-06-17T10:53:29.177Z,3385.816053511706
2023-06-17T11:11:41.590Z,3364.8260869565215
2023-06-17T11:18:06.282Z,3197.0367892976587
2023-06-17T11:26:58.369Z,3181.0836120401336
2023-06-17T11:36:54.000Z,2817.2809364548493
2023-06-17T11:48:52.576Z,2980.264214046823
2023-06-17T11:55:16.011Z,2840.809364548495
2023-06-17T12:01:40.200Z,2736.4715719063547
2023-06-17T12:08:02.781Z,2813.759197324415
2023-06-17T12:19:45.852Z,2686.123745819398
2023-06-17T12:31:10.333Z,2509.314381270903
2023-06-17T12:37:33.220Z,2499.752508361204
2023-06-17T12:43:55.915Z,2369.277591973244
2023-06-17T12:50:18.914Z,2293.9665551839466
2023-06-17T12:56:55.605Z,2300.1170568561874
2023-06-17T13:03:19.077Z,2356.3946488294314
2023-06-17T13:09:42.519Z,2159.9498327759197
2023-06-17T13:16:05.517Z,2136.1103678929767
2023-06-17T13:22:28.258Z,2036.6789297658863
2023-06-17T13:28:51.564Z,2033.1170568561872
2023-06-17T13:50:37.680Z,1879.6254180602007
2023-06-17T13:57:00.379Z,1988.3377926421404
2023-06-17T14:03:23.833Z,2042.056856187291
2023-06-17T14:12:21.808Z,2201.5585284280937
2023-06-17T14:18:45.008Z,2306.6989966555184
2023-06-17T14:25:07.470Z,2156.247491638796
2023-06-17T14:31:30.571Z,2196.230769230769
2023-06-17T14:37:54.032Z,2123.7391304347825
2023-06-17T14:48:26.031Z,2044.0735785953177
2023-06-17T14:54:50.336Z,1976.9498327759197
2023-06-17T15:04:53.368Z,1956.772575250836
2023-06-17T15:11:17.959Z,1914.6020066889632
2023-06-17T15:17:41.427Z,1796.979933110368
2023-06-17T15:24:36.288Z,1885.314381270903
2023-06-17T15:36:35.546Z,1932.551839464883
2023-06-17T15:42:59.668Z,1964.3377926421404
2023-06-17T15:59:22.155Z,1979.7692307692307
2023-06-17T16:05:45.231Z,1877.066889632107
2023-06-17T16:12:08.540Z,1760.2775919732442
2023-06-17T16:20:29.960Z,1644.0
2023-06-17T16:31:36.320Z,1537.5250836120401
2023-06-17T16:38:00.671Z,1581.6421404682274
2023-06-17T16:44:24.791Z,1569.3311036789298
2023-06-17T16:50:49.767Z,1481.247491638796
2023-06-17T16:57:13.018Z,1579.3946488294314
2023-06-17T17:03:36.769Z,1668.0301003344482
2023-06-17T17:10:00.417Z,1666.5351170568563
2023-06-17T17:16:23.660Z,1668.0903010033444
2023-06-17T17:28:38.764Z,1651.5953177257525
2023-06-17T17:35:01.861Z,1785.3010033444816
2023-06-17T17:41:24.899Z,1997.1471571906354
2023-06-17T17:59:28.313Z,2190.7725752508363
2023-06-17T18:07:01.989Z,2295.541806020067
2023-06-17T18:13:24.435Z,2282.799331103679
2023-06-17T18:19:47.123Z,2289.742474916388
2023-06-17T18:26:09.477Z,2293.2441471571906
2023-06-17T18:32:31.372Z,2350.1939799331103
2023-06-17T18:38:54.343Z,2358.4214046822744
2023-06-17T18:45:17.494Z,2342.046822742475
2023-06-17T18:51:41.219Z,2330.2274247491637
2023-06-17T19:04:50.921Z,2306.598662207358
2023-06-17T19:18:38.190Z,2312.608695652174
2023-06-17T19:25:01.070Z,2285.5384615384614
2023-06-17T19:31:24.781Z,2198.8595317725753
2023-06-17T19:42:38.301Z,2094.722408026756
2023-06-17T19:48:59.055Z,2202.8628762541807
2023-06-17T19:55:21.639Z,2232.3010033444816
2023-06-17T20:08:30.077Z,2339.608695652174
2023-06-17T20:14:51.003Z,2361.591973244147
2023-06-17T20:27:43.748Z,2359.3946488294314
2023-06-17T20:34:04.399Z,2322.6020066889632
2023-06-17T20:44:11.553Z,2507.2976588628762
2023-06-17T20:50:32.212Z,2478.8327759197323
2023-06-17T20:56:52.901Z,2522.257525083612
2023-06-17T21:03:13.973Z,2682.3110367892978
2023-06-17T21:09:34.908Z,2762.9297658862874
2023-06-17T21:22:07.019Z,2784.8327759197323
2023-06-17T21:28:32.392Z,2813.3377926421404
2023-06-17T21:38:19.491Z,2953.876254180602
2023-06-17T21:50:51.296Z,3016.0334448160534
2023-06-17T21:57:12.733Z,2895.872909698997
2023-06-17T22:07:23.643Z,2978.277591973244
2023-06-17T22:19:38.647Z,2941.896321070234
2023-06-17T22:33:28.719Z,2847.511705685619
2023-06-17T22:44:47.415Z,2781.6120401337794
2023-06-17T22:51:08.116Z,2837.9096989966556
2023-06-17T22:57:28.468Z,2807.598662207358
2023-06-17T23:03:49.300Z,2757.321070234114
2023-06-17T23:10:56.769Z,2804.7190635451507
2023-06-17T23:17:17.525Z,2876.488294314381
2023-06-17T23:23:37.981Z,2809.0133779264215
2023-06-17T23:42:29.146Z,2979.6454849498327
2023-06-17T23:48:50.423Z,2969.1672240802677
2023-06-17T23:55:11.931Z,3033.38127090301
